createdAt,value
2016-11-23T00:02:06.823Z,1008.89
2016-11-23T00:07:03.227Z,1008.91
2016-11-23T00:11:59.739Z,1008.82
2016-11-23T00:16:56.236Z,1008.71
2016-11-23T00:21:52.727Z,1008.68
2016-11-23T00:26:49.344Z,1008.79
2016-11-23T00:31:45.731Z,1008.86
2016-11-23T00:36:42.358Z,1008.90
2016-11-23T00:41:38.817Z,1008.89
2016-11-23T00:46:35.482Z,1008.86
2016-11-23T00:51:32.695Z,1009.07
2016-11-23T00:56:29.196Z,1009.18
2016-11-23T01:01:25.728Z,1009.22
2016-11-23T01:06:22.144Z,1009.28
2016-11-23T01:11:18.883Z,1009.40
2016-11-23T01:16:15.553Z,1009.42
2016-11-23T01:21:11.992Z,1009.48
2016-11-23T01:26:08.073Z,1009.44
2016-11-23T01:31:04.543Z,1009.36
2016-11-23T01:36:00.904Z,1009.42
2016-11-23T01:40:57.349Z,1009.34
2016-11-23T01:45:53.829Z,1009.53
2016-11-23T01:50:50.178Z,1009.47
2016-11-23T01:55:46.665Z,1009.45
2016-11-23T02:00:43.363Z,1009.46
2016-11-23T02:05:39.796Z,1009.63
2016-11-23T02:10:36.474Z,1009.69
2016-11-23T02:15:33.061Z,1009.82
2016-11-23T02:20:29.640Z,1009.95
2016-11-23T02:25:26.574Z,1010.05
2016-11-23T02:30:22.972Z,1010.02
2016-11-23T02:35:19.372Z,1010.02
2016-11-23T02:40:16.173Z,1010.15
2016-11-23T02:45:12.718Z,1010.00
2016-11-23T02:50:09.669Z,1010.05
2016-11-23T02:55:07.415Z,1010.14
2016-11-23T03:00:03.529Z,1009.96
2016-11-23T03:04:59.988Z,1009.69
2016-11-23T03:09:56.411Z,1009.43
2016-11-23T03:14:52.907Z,1009.39
2016-11-23T03:19:49.352Z,1009.29
2016-11-23T03:24:45.386Z,1009.31
2016-11-23T03:29:42.265Z,1009.41
2016-11-23T03:34:38.762Z,1009.33
2016-11-23T03:39:35.179Z,1009.53
2016-11-23T03:44:31.549Z,1009.63
2016-11-23T03:49:28.145Z,1009.75
2016-11-23T03:54:24.695Z,1009.99
2016-11-23T03:59:21.364Z,1009.92
2016-11-23T04:04:17.684Z,1009.81
2016-11-23T04:09:14.708Z,1009.96
2016-11-23T04:14:11.096Z,1009.88
2016-11-23T04:19:07.433Z,1009.96
2016-11-23T04:24:04.586Z,1009.79
2016-11-23T04:29:00.867Z,1009.90
2016-11-23T04:33:57.351Z,1009.89
2016-11-23T04:38:53.909Z,1009.87
2016-11-23T04:48:50.396Z,1009.91
2016-11-23T04:53:46.907Z,1009.81
2016-11-23T04:58:43.764Z,1009.95
2016-11-23T05:03:39.956Z,1009.91
2016-11-23T05:08:36.255Z,1009.81
2016-11-23T05:13:32.735Z,1009.87
2016-11-23T05:18:29.123Z,1009.76
2016-11-23T05:23:25.507Z,1009.82
2016-11-23T05:28:21.949Z,1009.89
2016-11-23T05:33:18.344Z,1010.00
2016-11-23T05:38:14.678Z,1010.15
2016-11-23T05:43:11.159Z,1010.02
2016-11-23T05:48:07.638Z,1010.03
2016-11-23T05:53:04.124Z,1010.04
2016-11-23T05:58:00.582Z,1009.95
2016-11-23T06:02:57.155Z,1009.94
2016-11-23T06:07:53.622Z,1009.93
2016-11-23T06:12:50.272Z,1009.95
2016-11-23T06:17:46.667Z,1009.91
2016-11-23T06:22:43.052Z,1010.04
2016-11-23T06:27:39.122Z,1009.98
2016-11-23T06:32:35.668Z,1010.06
2016-11-23T06:37:32.295Z,1010.14
2016-11-23T06:42:28.709Z,1010.20
2016-11-23T06:47:25.282Z,1010.22
2016-11-23T06:52:21.581Z,1010.33
2016-11-23T06:57:18.294Z,1010.46
2016-11-23T07:02:14.635Z,1010.50
2016-11-23T07:07:11.179Z,1010.51
2016-11-23T07:12:07.646Z,1010.60
2016-11-23T07:17:04.211Z,1010.59
2016-11-23T07:22:00.742Z,1010.84
2016-11-23T07:26:58.229Z,1010.83
2016-11-23T07:31:54.546Z,1010.86
2016-11-23T07:36:51.129Z,1010.89
2016-11-23T07:41:47.730Z,1010.90
2016-11-23T07:46:44.249Z,1011.12
2016-11-23T07:51:40.853Z,1011.14
2016-11-23T07:56:37.477Z,1011.10
2016-11-23T08:01:33.591Z,1011.15
2016-11-23T08:06:30.602Z,1011.06
2016-11-23T08:11:27.015Z,1011.02
2016-11-23T08:16:23.707Z,1011.13
2016-11-23T08:21:20.269Z,1011.08
2016-11-23T08:26:17.243Z,1011.16
2016-11-23T08:31:13.731Z,1011.02
2016-11-23T08:36:10.138Z,1010.98
2016-11-23T08:41:06.711Z,1011.09
2016-11-23T08:46:03.029Z,1011.10
2016-11-23T08:50:59.671Z,1011.05
2016-11-23T08:55:56.173Z,1011.19
2016-11-23T09:00:53.263Z,1011.15
2016-11-23T09:05:49.788Z,1011.08
2016-11-23T09:10:46.363Z,1011.12
2016-11-23T09:15:42.963Z,1011.21
2016-11-23T09:20:39.524Z,1011.27
2016-11-23T09:25:36.108Z,1011.32
2016-11-23T09:30:32.548Z,1011.37
2016-11-23T09:35:29.520Z,1011.47
2016-11-23T09:40:26.222Z,1011.46
2016-11-23T09:45:25.451Z,1011.47
2016-11-23T09:50:21.537Z,1011.38
2016-11-23T09:55:17.807Z,1011.35
2016-11-23T10:00:14.181Z,1011.41
2016-11-23T10:05:10.848Z,1011.35
2016-11-23T10:10:09.708Z,1011.44
2016-11-23T10:15:06.300Z,1011.44
2016-11-23T10:20:02.873Z,1011.35
2016-11-23T10:24:59.265Z,1011.40
2016-11-23T10:29:56.301Z,1011.54
2016-11-23T10:34:53.021Z,1011.55
2016-11-23T10:39:50.372Z,1011.48
2016-11-23T10:44:47.233Z,1011.35
2016-11-23T10:49:44.315Z,1011.44
2016-11-23T10:54:40.961Z,1011.30
2016-11-23T10:59:37.701Z,1011.29
2016-11-23T11:04:34.674Z,1011.23
2016-11-23T11:09:31.219Z,1011.37
2016-11-23T11:14:28.098Z,1011.61
2016-11-23T11:19:24.383Z,1011.54
2016-11-23T11:24:20.996Z,1011.60
2016-11-23T11:29:17.731Z,1011.46
2016-11-23T11:34:13.952Z,1011.39
2016-11-23T11:39:11.056Z,1011.45
2016-11-23T11:44:08.081Z,1011.41
2016-11-23T11:49:04.119Z,1011.44
2016-11-23T11:54:00.950Z,1011.24
2016-11-23T11:58:57.395Z,1011.23
2016-11-23T12:03:53.633Z,1011.39
2016-11-23T12:08:50.212Z,1011.41
2016-11-23T12:13:47.115Z,1011.23
2016-11-23T12:18:43.910Z,1011.22
2016-11-23T12:23:40.640Z,1011.19
2016-11-23T12:28:37.066Z,1011.24
2016-11-23T12:33:33.498Z,1011.13
2016-11-23T12:38:31.064Z,1011.21
2016-11-23T12:43:27.222Z,1011.24
2016-11-23T12:48:24.360Z,1011.24
2016-11-23T12:53:20.623Z,1011.23
2016-11-23T12:58:17.332Z,1011.21
2016-11-23T13:03:13.837Z,1011.16
2016-11-23T13:08:10.353Z,1011.18
2016-11-23T13:13:06.769Z,1011.16
2016-11-23T13:18:03.585Z,1011.16
2016-11-23T13:23:02.755Z,1011.07
2016-11-23T13:27:58.716Z,1011.16
2016-11-23T13:32:55.610Z,1011.20
2016-11-23T13:37:52.082Z,1011.21
2016-11-23T13:42:48.674Z,1011.19
2016-11-23T13:47:45.190Z,1011.08
2016-11-23T13:52:41.603Z,1011.14
2016-11-23T13:57:38.189Z,1011.13
2016-11-23T14:02:34.710Z,1011.16
2016-11-23T14:07:30.919Z,1011.36
2016-11-23T14:12:27.468Z,1011.30
2016-11-23T14:17:24.049Z,1011.44
2016-11-23T14:22:21.036Z,1011.38
2016-11-23T14:27:17.308Z,1011.39
2016-11-23T14:32:13.808Z,1011.40
2016-11-23T14:37:09.956Z,1011.58
2016-11-23T14:42:06.163Z,1011.49
2016-11-23T14:47:02.836Z,1011.51
2016-11-23T14:51:59.569Z,1011.52
2016-11-23T14:56:56.154Z,1011.61
2016-11-23T15:01:52.450Z,1011.63
2016-11-23T15:06:49.389Z,1011.58
2016-11-23T15:11:45.749Z,1011.62
2016-11-23T15:16:42.467Z,1011.71
2016-11-23T15:21:38.530Z,1011.75
2016-11-23T15:26:34.997Z,1011.80
2016-11-23T15:31:31.362Z,1011.84
2016-11-23T15:36:28.228Z,1011.91
2016-11-23T15:41:24.578Z,1011.90
2016-11-23T15:46:21.259Z,1011.99
2016-11-23T15:51:18.663Z,1012.04
2016-11-23T15:56:15.671Z,1012.15
2016-11-23T16:01:13.304Z,1012.24
2016-11-23T16:06:10.356Z,1012.15
2016-11-23T16:11:06.926Z,1012.21
2016-11-23T16:16:06.584Z,1012.23
2016-11-23T16:21:02.576Z,1012.24
2016-11-23T16:25:59.109Z,1012.33
2016-11-23T16:30:55.638Z,1012.36
2016-11-23T16:35:51.860Z,1012.41
2016-11-23T16:40:48.676Z,1012.46
2016-11-23T16:45:46.260Z,1012.45
2016-11-23T16:50:42.494Z,1012.51
2016-11-23T16:55:38.909Z,1012.62
2016-11-23T17:00:35.362Z,1012.63
2016-11-23T17:05:31.719Z,1012.64
2016-11-23T17:10:28.264Z,1012.73
2016-11-23T17:15:24.698Z,1012.72
2016-11-23T17:20:20.868Z,1012.80
2016-11-23T17:25:17.132Z,1012.70
2016-11-23T17:30:13.983Z,1012.70
2016-11-23T17:35:10.517Z,1012.70
2016-11-23T17:40:07.589Z,1012.79
2016-11-23T17:45:05.032Z,1012.73
2016-11-23T17:50:01.558Z,1012.71
2016-11-23T17:55:00.509Z,1012.81
2016-11-23T17:59:56.188Z,1012.73
2016-11-23T18:04:52.530Z,1012.77
2016-11-23T18:09:49.274Z,1012.85
2016-11-23T18:14:45.769Z,1012.86
2016-11-23T18:19:42.109Z,1012.76
2016-11-23T18:24:39.235Z,1012.87
2016-11-23T18:29:35.778Z,1012.86
2016-11-23T18:34:32.421Z,1012.93
2016-11-23T18:39:28.766Z,1012.91
2016-11-23T18:44:25.256Z,1012.77
2016-11-23T18:49:21.641Z,1012.89
2016-11-23T18:54:18.121Z,1012.85
2016-11-23T18:59:14.782Z,1012.83
2016-11-23T19:04:11.383Z,1012.89
2016-11-23T19:09:08.080Z,1012.97
2016-11-23T19:14:04.279Z,1013.00
2016-11-23T19:19:00.616Z,1013.00
2016-11-23T19:23:57.117Z,1012.97
2016-11-23T19:28:53.749Z,1013.05
2016-11-23T19:33:50.192Z,1013.07
2016-11-23T19:38:46.478Z,1013.14
2016-11-23T19:43:42.590Z,1013.18
2016-11-23T19:48:39.282Z,1013.21
2016-11-23T19:53:35.822Z,1013.21
2016-11-23T19:58:32.199Z,1013.26
2016-11-23T20:03:28.573Z,1013.27
2016-11-23T20:08:25.331Z,1013.37
2016-11-23T20:13:22.391Z,1013.38
2016-11-23T20:18:18.823Z,1013.47
2016-11-23T20:23:15.248Z,1013.39
2016-11-23T20:28:11.331Z,1013.37
2016-11-23T20:33:08.131Z,1013.38
2016-11-23T20:38:04.603Z,1013.45
2016-11-23T20:43:01.130Z,1013.47
2016-11-23T20:47:57.498Z,1013.47
2016-11-23T20:52:53.949Z,1013.50
2016-11-23T20:57:50.308Z,1013.45
2016-11-23T21:02:46.900Z,1013.39
2016-11-23T21:07:43.509Z,1013.43
2016-11-23T21:12:39.882Z,1013.51
2016-11-23T21:17:36.425Z,1013.61
2016-11-23T21:22:33.138Z,1013.57
2016-11-23T21:27:29.613Z,1013.46
2016-11-23T21:32:25.701Z,1013.45
2016-11-23T21:37:21.909Z,1013.49
2016-11-23T21:42:18.419Z,1013.45
2016-11-23T21:47:15.775Z,1013.44
2016-11-23T21:52:12.202Z,1013.50
2016-11-23T21:57:09.292Z,1013.40
2016-11-23T22:02:06.041Z,1013.34
2016-11-23T22:07:02.467Z,1013.46
2016-11-23T22:11:58.915Z,1013.36
2016-11-23T22:16:56.458Z,1013.31
2016-11-23T22:21:52.764Z,1013.43
2016-11-23T22:26:50.291Z,1013.60
2016-11-23T22:31:46.362Z,1013.64
2016-11-23T22:36:42.817Z,1013.66
2016-11-23T22:41:39.431Z,1013.74
2016-11-23T22:46:35.873Z,1013.82
2016-11-23T22:51:32.492Z,1013.77
2016-11-23T22:56:29.135Z,1013.77
2016-11-23T23:01:27.043Z,1013.89
2016-11-23T23:06:22.929Z,1013.91
2016-11-23T23:11:19.341Z,1013.99
2016-11-23T23:16:16.782Z,1014.17
2016-11-23T23:21:13.461Z,1014.21
2016-11-23T23:26:09.876Z,1014.18
2016-11-23T23:31:06.593Z,1014.21
2016-11-23T23:36:03.195Z,1014.12
2016-11-23T23:41:00.800Z,1014.17
2016-11-23T23:45:57.016Z,1014.14
2016-11-23T23:50:53.528Z,1014.09
2016-11-23T23:55:49.857Z,1014.12
